sensor_id;sensor_type;location;lat;lon;timestamp;temperature;humidity
46508;DHT22;32223;53.654;10.014;2023-04-15T00:00:11;7.10;99.90
46508;DHT22;32223;53.654;10.014;2023-04-15T00:02:37;7.10;99.90
46508;DHT22;32223;53.654;10.014;2023-04-15T00:05:04;7.00;99.90
46508;DHT22;32223;53.654;10.014;2023-04-15T00:07:29;7.00;99.90
46508;DHT22;32223;53.654;10.014;2023-04-15T00:09:56;7.00;99.90
46508;DHT22;32223;53.654;10.014;2023-04-15T00:12:26;7.00;99.90
46508;DHT22;32223;53.654;10.014;2023-04-15T00:14:53;7.00;99.90
46508;DHT22;32223;53.654;10.014;2023-04-15T00:17:19;7.00;99.90
46508;DHT22;32223;53.654;10.014;2023-04-15T00:19:44;7.00;99.90
46508;DHT22;32223;53.654;10.014;2023-04-15T00:22:10;7.00;99.90
46508;DHT22;32223;53.654;10.014;2023-04-15T00:24:37;7.10;99.90
46508;DHT22;32223;53.654;10.014;2023-04-15T00:27:03;7.00;99.90
46508;DHT22;32223;53.654;10.014;2023-04-15T00:29:29;7.00;99.90
46508;DHT22;32223;53.654;10.014;2023-04-15T00:31:55;7.00;99.90
46508;DHT22;32223;53.654;10.014;2023-04-15T00:34:22;7.00;99.90
46508;DHT22;32223;53.654;10.014;2023-04-15T00:36:48;7.00;99.90
46508;DHT22;32223;53.654;10.014;2023-04-15T00:39:13;6.90;99.90
46508;DHT22;32223;53.654;10.014;2023-04-15T00:41:40;7.00;99.90
46508;DHT22;32223;53.654;10.014;2023-04-15T00:44:07;7.00;99.90
46508;DHT22;32223;53.654;10.014;2023-04-15T00:46:35;7.00;99.90
46508;DHT22;32223;53.654;10.014;2023-04-15T00:49:03;7.00;99.90
46508;DHT22;32223;53.654;10.014;2023-04-15T00:51:29;7.00;99.90
46508;DHT22;32223;53.654;10.014;2023-04-15T00:53:58;7.00;99.90
46508;DHT22;32223;53.654;10.014;2023-04-15T00:56:24;7.00;99.90
46508;DHT22;32223;53.654;10.014;2023-04-15T00:58:51;7.00;99.90
46508;DHT22;32223;53.654;10.014;2023-04-15T01:01:21;7.00;99.90
46508;DHT22;32223;53.654;10.014;2023-04-15T01:03:50;7.00;99.90
46508;DHT22;32223;53.654;10.014;2023-04-15T01:06:16;7.00;99.90
46508;DHT22;32223;53.654;10.014;2023-04-15T01:08:43;7.00;99.90
46508;DHT22;32223;53.654;10.014;2023-04-15T01:11:09;7.00;99.90
46508;DHT22;32223;53.654;10.014;2023-04-15T01:13:37;7.00;99.90
46508;DHT22;32223;53.654;10.014;2023-04-15T01:16:02;6.90;99.90
46508;DHT22;32223;53.654;10.014;2023-04-15T01:18:29;7.00;99.90
46508;DHT22;32223;53.654;10.014;2023-04-15T01:20:55;7.00;99.90
46508;DHT22;32223;53.654;10.014;2023-04-15T01:23:21;7.00;99.90
46508;DHT22;32223;53.654;10.014;2023-04-15T01:25:49;7.00;99.90
46508;DHT22;32223;53.654;10.014;2023-04-15T01:28:15;7.00;99.90
46508;DHT22;32223;53.654;10.014;2023-04-15T01:30:41;7.00;99.90
46508;DHT22;32223;53.654;10.014;2023-04-15T01:33:07;7.00;99.90
46508;DHT22;32223;53.654;10.014;2023-04-15T01:35:33;6.90;99.90
46508;DHT22;32223;53.654;10.014;2023-04-15T01:38:06;7.00;99.90
46508;DHT22;32223;53.654;10.014;2023-04-15T01:40:33;6.90;99.90
46508;DHT22;32223;53.654;10.014;2023-04-15T01:43:00;7.00;99.90
46508;DHT22;32223;53.654;10.014;2023-04-15T01:45:25;7.00;99.90
46508;DHT22;32223;53.654;10.014;2023-04-15T01:47:51;7.00;99.90
46508;DHT22;32223;53.654;10.014;2023-04-15T01:50:17;7.00;99.90
46508;DHT22;32223;53.654;10.014;2023-04-15T01:52:43;7.00;99.90
46508;DHT22;32223;53.654;10.014;2023-04-15T01:55:10;7.00;99.90
46508;DHT22;32223;53.654;10.014;2023-04-15T01:57:35;7.00;99.90
46508;DHT22;32223;53.654;10.014;2023-04-15T02:00:01;7.00;99.90
46508;DHT22;32223;53.654;10.014;2023-04-15T02:02:28;7.10;99.90
46508;DHT22;32223;53.654;10.014;2023-04-15T02:04:55;7.10;99.90
46508;DHT22;32223;53.654;10.014;2023-04-15T02:07:20;7.10;99.90
46508;DHT22;32223;53.654;10.014;2023-04-15T02:09:46;7.10;99.90
46508;DHT22;32223;53.654;10.014;2023-04-15T02:12:12;7.10;99.90
46508;DHT22;32223;53.654;10.014;2023-04-15T02:14:38;7.00;99.90
46508;DHT22;32223;53.654;10.014;2023-04-15T02:17:03;7.00;99.90
46508;DHT22;32223;53.654;10.014;2023-04-15T02:19:33;7.00;99.90
46508;DHT22;32223;53.654;10.014;2023-04-15T02:21:59;7.00;99.90
46508;DHT22;32223;53.654;10.014;2023-04-15T02:24:26;7.00;99.90
46508;DHT22;32223;53.654;10.014;2023-04-15T02:26:52;7.00;99.90
46508;DHT22;32223;53.654;10.014;2023-04-15T02:29:17;7.10;99.90
46508;DHT22;32223;53.654;10.014;2023-04-15T02:31:43;7.00;99.90
46508;DHT22;32223;53.654;10.014;2023-04-15T02:34:09;7.10;99.90
46508;DHT22;32223;53.654;10.014;2023-04-15T02:36:35;7.10;99.90
46508;DHT22;32223;53.654;10.014;2023-04-15T02:39:01;7.10;99.90
46508;DHT22;32223;53.654;10.014;2023-04-15T02:41:27;7.10;99.90
46508;DHT22;32223;53.654;10.014;2023-04-15T02:43:54;7.10;99.90
46508;DHT22;32223;53.654;10.014;2023-04-15T02:46:20;7.10;99.90
46508;DHT22;32223;53.654;10.014;2023-04-15T02:48:47;7.10;99.90
46508;DHT22;32223;53.654;10.014;2023-04-15T02:51:18;7.10;99.90
46508;DHT22;32223;53.654;10.014;2023-04-15T02:53:44;7.10;99.90
46508;DHT22;32223;53.654;10.014;2023-04-15T02:56:10;7.20;99.90
46508;DHT22;32223;53.654;10.014;2023-04-15T02:58:37;7.10;99.90
46508;DHT22;32223;53.654;10.014;2023-04-15T03:01:03;7.20;99.90
46508;DHT22;32223;53.654;10.014;2023-04-15T03:03:29;7.20;99.90
46508;DHT22;32223;53.654;10.014;2023-04-15T03:05:55;7.20;99.90
46508;DHT22;32223;53.654;10.014;2023-04-15T03:08:20;7.20;99.90
46508;DHT22;32223;53.654;10.014;2023-04-15T03:10:46;7.20;99.90
46508;DHT22;32223;53.654;10.014;2023-04-15T03:13:12;7.20;99.90
46508;DHT22;32223;53.654;10.014;2023-04-15T03:15:38;7.20;99.90
46508;DHT22;32223;53.654;10.014;2023-04-15T03:18:04;7.20;99.90
46508;DHT22;32223;53.654;10.014;2023-04-15T03:20:29;7.20;99.90
46508;DHT22;32223;53.654;10.014;2023-04-15T03:22:55;7.20;99.90
46508;DHT22;32223;53.654;10.014;2023-04-15T03:25:21;7.20;99.90
46508;DHT22;32223;53.654;10.014;2023-04-15T03:27:46;7.20;99.90
46508;DHT22;32223;53.654;10.014;2023-04-15T03:30:12;7.20;99.90
46508;DHT22;32223;53.654;10.014;2023-04-15T03:32:38;7.20;99.90
46508;DHT22;32223;53.654;10.014;2023-04-15T03:35:04;7.30;99.90
46508;DHT22;32223;53.654;10.014;2023-04-15T03:37:30;7.20;99.90
46508;DHT22;32223;53.654;10.014;2023-04-15T03:39:56;7.20;99.90
46508;DHT22;32223;53.654;10.014;2023-04-15T03:42:22;7.30;99.90
46508;DHT22;32223;53.654;10.014;2023-04-15T03:44:47;7.30;99.90
46508;DHT22;32223;53.654;10.014;2023-04-15T03:47:13;7.30;99.90
46508;DHT22;32223;53.654;10.014;2023-04-15T03:49:39;7.30;99.90
46508;DHT22;32223;53.654;10.014;2023-04-15T03:52:05;7.30;99.90
46508;DHT22;32223;53.654;10.014;2023-04-15T03:54:30;7.30;99.90
46508;DHT22;32223;53.654;10.014;2023-04-15T03:56:56;7.30;99.90
46508;DHT22;32223;53.654;10.014;2023-04-15T03:59:22;7.30;99.90
46508;DHT22;32223;53.654;10.014;2023-04-15T04:01:48;7.30;99.90
46508;DHT22;32223;53.654;10.014;2023-04-15T04:04:13;7.30;99.90
46508;DHT22;32223;53.654;10.014;2023-04-15T04:06:39;7.30;99.90
46508;DHT22;32223;53.654;10.014;2023-04-15T04:09:05;7.30;99.90
46508;DHT22;32223;53.654;10.014;2023-04-15T04:11:30;7.30;99.90
46508;DHT22;32223;53.654;10.014;2023-04-15T04:13:57;7.40;99.90
46508;DHT22;32223;53.654;10.014;2023-04-15T04:16:23;7.30;99.90
46508;DHT22;32223;53.654;10.014;2023-04-15T04:18:48;7.30;99.90
46508;DHT22;32223;53.654;10.014;2023-04-15T04:21:14;7.30;99.90
46508;DHT22;32223;53.654;10.014;2023-04-15T04:23:40;7.30;99.90
46508;DHT22;32223;53.654;10.014;2023-04-15T04:26:05;7.30;99.90
46508;DHT22;32223;53.654;10.014;2023-04-15T04:28:31;7.40;99.90
46508;DHT22;32223;53.654;10.014;2023-04-15T04:30:57;7.40;99.90
46508;DHT22;32223;53.654;10.014;2023-04-15T04:33:23;7.40;99.90
46508;DHT22;32223;53.654;10.014;2023-04-15T04:35:48;7.40;99.90
46508;DHT22;32223;53.654;10.014;2023-04-15T04:38:14;7.40;99.90
46508;DHT22;32223;53.654;10.014;2023-04-15T04:40:40;7.40;99.90
46508;DHT22;32223;53.654;10.014;2023-04-15T04:43:06;7.40;99.90
46508;DHT22;32223;53.654;10.014;2023-04-15T04:45:31;7.40;99.90
46508;DHT22;32223;53.654;10.014;2023-04-15T04:47:57;7.40;99.90
46508;DHT22;32223;53.654;10.014;2023-04-15T04:50:22;7.50;99.90
46508;DHT22;32223;53.654;10.014;2023-04-15T04:52:48;7.50;99.90
46508;DHT22;32223;53.654;10.014;2023-04-15T04:55:13;7.40;99.90
46508;DHT22;32223;53.654;10.014;2023-04-15T04:57:39;7.50;99.90
46508;DHT22;32223;53.654;10.014;2023-04-15T05:00:06;7.50;99.90
46508;DHT22;32223;53.654;10.014;2023-04-15T05:02:33;7.40;99.90
46508;DHT22;32223;53.654;10.014;2023-04-15T05:04:59;7.50;99.90
46508;DHT22;32223;53.654;10.014;2023-04-15T05:07:25;7.50;99.90
46508;DHT22;32223;53.654;10.014;2023-04-15T05:09:50;7.50;99.90
46508;DHT22;32223;53.654;10.014;2023-04-15T05:12:16;7.50;99.90
46508;DHT22;32223;53.654;10.014;2023-04-15T05:14:42;7.50;99.90
46508;DHT22;32223;53.654;10.014;2023-04-15T05:17:08;7.50;99.90
46508;DHT22;32223;53.654;10.014;2023-04-15T05:19:34;7.50;99.90
46508;DHT22;32223;53.654;10.014;2023-04-15T05:22:00;7.60;99.90
46508;DHT22;32223;53.654;10.014;2023-04-15T05:24:26;7.60;99.90
46508;DHT22;32223;53.654;10.014;2023-04-15T05:26:51;7.60;99.90
46508;DHT22;32223;53.654;10.014;2023-04-15T05:29:17;7.60;99.90
46508;DHT22;32223;53.654;10.014;2023-04-15T05:31:43;7.60;99.90
46508;DHT22;32223;53.654;10.014;2023-04-15T05:34:08;7.60;99.90
46508;DHT22;32223;53.654;10.014;2023-04-15T05:36:36;7.60;99.90
46508;DHT22;32223;53.654;10.014;2023-04-15T05:39:02;7.60;99.90
46508;DHT22;32223;53.654;10.014;2023-04-15T05:41:28;7.70;99.90
46508;DHT22;32223;53.654;10.014;2023-04-15T05:43:54;7.70;99.90
46508;DHT22;32223;53.654;10.014;2023-04-15T05:46:19;7.70;99.90
46508;DHT22;32223;53.654;10.014;2023-04-15T05:48:45;7.70;99.90
46508;DHT22;32223;53.654;10.014;2023-04-15T05:51:11;7.70;99.90
46508;DHT22;32223;53.654;10.014;2023-04-15T05:53:36;7.70;99.90
46508;DHT22;32223;53.654;10.014;2023-04-15T05:56:02;7.70;99.90
46508;DHT22;32223;53.654;10.014;2023-04-15T05:58:28;7.70;99.90
46508;DHT22;32223;53.654;10.014;2023-04-15T06:00:53;7.70;99.90
46508;DHT22;32223;53.654;10.014;2023-04-15T06:03:19;7.70;99.90
46508;DHT22;32223;53.654;10.014;2023-04-15T06:05:47;7.70;99.90
46508;DHT22;32223;53.654;10.014;2023-04-15T06:08:12;7.70;99.90
46508;DHT22;32223;53.654;10.014;2023-04-15T06:10:38;7.80;99.90
46508;DHT22;32223;53.654;10.014;2023-04-15T06:13:04;7.70;99.90
46508;DHT22;32223;53.654;10.014;2023-04-15T06:15:30;7.70;99.90
46508;DHT22;32223;53.654;10.014;2023-04-15T06:17:56;7.70;99.90
46508;DHT22;32223;53.654;10.014;2023-04-15T06:20:22;7.80;99.90
46508;DHT22;32223;53.654;10.014;2023-04-15T06:22:48;7.80;99.90
46508;DHT22;32223;53.654;10.014;2023-04-15T06:25:14;7.80;99.90
46508;DHT22;32223;53.654;10.014;2023-04-15T06:27:39;7.80;99.90
46508;DHT22;32223;53.654;10.014;2023-04-15T06:30:06;7.90;99.90
46508;DHT22;32223;53.654;10.014;2023-04-15T06:32:32;7.80;99.90
46508;DHT22;32223;53.654;10.014;2023-04-15T06:34:57;7.80;99.90
46508;DHT22;32223;53.654;10.014;2023-04-15T06:37:23;7.90;99.90
46508;DHT22;32223;53.654;10.014;2023-04-15T06:39:49;7.90;99.90
46508;DHT22;32223;53.654;10.014;2023-04-15T06:42:14;7.90;99.90
46508;DHT22;32223;53.654;10.014;2023-04-15T06:44:40;7.90;99.90
46508;DHT22;32223;53.654;10.014;2023-04-15T06:47:06;7.90;99.90
46508;DHT22;32223;53.654;10.014;2023-04-15T06:49:32;8.00;99.90
46508;DHT22;32223;53.654;10.014;2023-04-15T06:51:58;8.00;99.90
46508;DHT22;32223;53.654;10.014;2023-04-15T06:54:25;8.00;99.90
46508;DHT22;32223;53.654;10.014;2023-04-15T06:56:51;8.00;99.90
46508;DHT22;32223;53.654;10.014;2023-04-15T06:59:17;8.00;99.90
46508;DHT22;32223;53.654;10.014;2023-04-15T07:01:43;8.00;99.90
46508;DHT22;32223;53.654;10.014;2023-04-15T07:04:09;8.00;99.90
46508;DHT22;32223;53.654;10.014;2023-04-15T07:06:35;8.00;99.90
46508;DHT22;32223;53.654;10.014;2023-04-15T07:09:01;8.10;99.90
46508;DHT22;32223;53.654;10.014;2023-04-15T07:11:27;8.00;99.90
46508;DHT22;32223;53.654;10.014;2023-04-15T07:13:53;8.00;99.90
46508;DHT22;32223;53.654;10.014;2023-04-15T07:16:18;8.10;99.90
46508;DHT22;32223;53.654;10.014;2023-04-15T07:18:44;8.10;99.90
46508;DHT22;32223;53.654;10.014;2023-04-15T07:21:09;8.10;99.90
46508;DHT22;32223;53.654;10.014;2023-04-15T07:23:35;8.10;99.90
46508;DHT22;32223;53.654;10.014;2023-04-15T07:26:02;8.20;99.90
46508;DHT22;32223;53.654;10.014;2023-04-15T07:28:27;8.20;99.90
46508;DHT22;32223;53.654;10.014;2023-04-15T07:30:54;8.20;99.90
46508;DHT22;32223;53.654;10.014;2023-04-15T07:33:19;8.20;99.90
46508;DHT22;32223;53.654;10.014;2023-04-15T07:35:45;8.20;99.90
46508;DHT22;32223;53.654;10.014;2023-04-15T07:38:11;8.20;99.90
46508;DHT22;32223;53.654;10.014;2023-04-15T07:40:38;8.30;99.90
46508;DHT22;32223;53.654;10.014;2023-04-15T07:43:04;8.20;99.90
46508;DHT22;32223;53.654;10.014;2023-04-15T07:45:30;8.30;99.90
46508;DHT22;32223;53.654;10.014;2023-04-15T07:47:56;8.40;99.90
46508;DHT22;32223;53.654;10.014;2023-04-15T07:50:22;8.30;99.90
46508;DHT22;32223;53.654;10.014;2023-04-15T07:52:49;8.30;99.90
46508;DHT22;32223;53.654;10.014;2023-04-15T07:55:15;8.40;99.90
46508;DHT22;32223;53.654;10.014;2023-04-15T07:57:43;8.30;99.90
46508;DHT22;32223;53.654;10.014;2023-04-15T08:00:09;8.40;99.90
46508;DHT22;32223;53.654;10.014;2023-04-15T08:02:35;8.40;99.90
46508;DHT22;32223;53.654;10.014;2023-04-15T08:05:01;8.50;99.90
46508;DHT22;32223;53.654;10.014;2023-04-15T08:07:28;8.50;99.90
46508;DHT22;32223;53.654;10.014;2023-04-15T08:09:54;8.60;99.90
46508;DHT22;32223;53.654;10.014;2023-04-15T08:12:21;8.70;99.90
46508;DHT22;32223;53.654;10.014;2023-04-15T08:14:47;8.70;99.90
46508;DHT22;32223;53.654;10.014;2023-04-15T08:17:12;8.70;99.90
46508;DHT22;32223;53.654;10.014;2023-04-15T08:19:39;8.80;99.90
46508;DHT22;32223;53.654;10.014;2023-04-15T08:22:05;8.80;99.90
46508;DHT22;32223;53.654;10.014;2023-04-15T08:24:31;8.70;99.90
46508;DHT22;32223;53.654;10.014;2023-04-15T08:26:56;8.70;99.90
46508;DHT22;32223;53.654;10.014;2023-04-15T08:29:22;8.70;99.90
46508;DHT22;32223;53.654;10.014;2023-04-15T08:31:48;8.80;99.90
46508;DHT22;32223;53.654;10.014;2023-04-15T08:34:14;8.80;99.90
46508;DHT22;32223;53.654;10.014;2023-04-15T08:36:40;8.80;99.90
46508;DHT22;32223;53.654;10.014;2023-04-15T08:39:06;8.80;99.90
46508;DHT22;32223;53.654;10.014;2023-04-15T08:41:39;8.80;99.90
46508;DHT22;32223;53.654;10.014;2023-04-15T08:44:09;8.80;99.90
46508;DHT22;32223;53.654;10.014;2023-04-15T08:46:35;8.80;99.90
46508;DHT22;32223;53.654;10.014;2023-04-15T08:49:03;8.80;99.90
46508;DHT22;32223;53.654;10.014;2023-04-15T08:51:30;8.90;99.90
46508;DHT22;32223;53.654;10.014;2023-04-15T08:53:56;8.90;99.90
46508;DHT22;32223;53.654;10.014;2023-04-15T08:56:24;8.90;99.90
46508;DHT22;32223;53.654;10.014;2023-04-15T08:58:51;9.00;99.90
46508;DHT22;32223;53.654;10.014;2023-04-15T09:01:19;9.00;99.90
46508;DHT22;32223;53.654;10.014;2023-04-15T09:03:45;9.10;99.90
46508;DHT22;32223;53.654;10.014;2023-04-15T09:06:13;9.10;99.90
46508;DHT22;32223;53.654;10.014;2023-04-15T09:08:40;9.20;99.90
46508;DHT22;32223;53.654;10.014;2023-04-15T09:11:06;9.20;99.90
46508;DHT22;32223;53.654;10.014;2023-04-15T09:13:32;9.40;99.90
46508;DHT22;32223;53.654;10.014;2023-04-15T09:16:01;9.50;99.90
46508;DHT22;32223;53.654;10.014;2023-04-15T09:18:34;9.50;99.90
46508;DHT22;32223;53.654;10.014;2023-04-15T09:21:11;9.60;99.90
46508;DHT22;32223;53.654;10.014;2023-04-15T09:23:39;9.70;99.90
46508;DHT22;32223;53.654;10.014;2023-04-15T09:26:05;9.80;99.90
46508;DHT22;32223;53.654;10.014;2023-04-15T09:28:31;9.90;99.90
46508;DHT22;32223;53.654;10.014;2023-04-15T09:31:00;10.00;99.90
46508;DHT22;32223;53.654;10.014;2023-04-15T09:33:28;10.10;99.90
46508;DHT22;32223;53.654;10.014;2023-04-15T09:36:02;10.30;99.90
46508;DHT22;32223;53.654;10.014;2023-04-15T09:38:29;10.40;99.90
46508;DHT22;32223;53.654;10.014;2023-04-15T09:40:55;10.50;99.90
46508;DHT22;32223;53.654;10.014;2023-04-15T09:43:21;10.60;99.90
46508;DHT22;32223;53.654;10.014;2023-04-15T09:45:52;10.60;99.90
46508;DHT22;32223;53.654;10.014;2023-04-15T09:48:22;10.60;99.90
46508;DHT22;32223;53.654;10.014;2023-04-15T09:50:50;10.70;99.90
46508;DHT22;32223;53.654;10.014;2023-04-15T09:53:19;10.90;99.90
46508;DHT22;32223;53.654;10.014;2023-04-15T09:55:54;11.00;99.90
46508;DHT22;32223;53.654;10.014;2023-04-15T09:58:24;11.30;99.90
46508;DHT22;32223;53.654;10.014;2023-04-15T10:00:52;11.60;99.90
46508;DHT22;32223;53.654;10.014;2023-04-15T10:03:26;11.90;99.90
46508;DHT22;32223;53.654;10.014;2023-04-15T10:05:57;12.20;99.90
46508;DHT22;32223;53.654;10.014;2023-04-15T10:08:28;12.30;99.90
46508;DHT22;32223;53.654;10.014;2023-04-15T10:10:54;12.50;99.90
46508;DHT22;32223;53.654;10.014;2023-04-15T10:13:23;12.70;99.90
46508;DHT22;32223;53.654;10.014;2023-04-15T10:15:56;12.90;99.90
46508;DHT22;32223;53.654;10.014;2023-04-15T10:18:24;13.00;99.90
46508;DHT22;32223;53.654;10.014;2023-04-15T10:20:51;13.10;99.90
46508;DHT22;32223;53.654;10.014;2023-04-15T10:23:17;13.10;99.90
46508;DHT22;32223;53.654;10.014;2023-04-15T10:25:45;13.30;99.90
46508;DHT22;32223;53.654;10.014;2023-04-15T10:28:11;13.60;99.90
46508;DHT22;32223;53.654;10.014;2023-04-15T10:30:38;13.90;99.90
46508;DHT22;32223;53.654;10.014;2023-04-15T10:33:04;14.10;99.90
46508;DHT22;32223;53.654;10.014;2023-04-15T10:35:31;14.30;99.90
46508;DHT22;32223;53.654;10.014;2023-04-15T10:37:57;14.40;99.90
46508;DHT22;32223;53.654;10.014;2023-04-15T10:42:53;14.70;99.90
46508;DHT22;32223;53.654;10.014;2023-04-15T10:45:19;14.60;99.90
46508;DHT22;32223;53.654;10.014;2023-04-15T10:47:45;14.80;99.90
46508;DHT22;32223;53.654;10.014;2023-04-15T10:50:11;15.20;99.90
46508;DHT22;32223;53.654;10.014;2023-04-15T10:52:39;15.60;99.90
46508;DHT22;32223;53.654;10.014;2023-04-15T10:57:36;15.30;99.90
46508;DHT22;32223;53.654;10.014;2023-04-15T11:00:13;15.10;99.90
46508;DHT22;32223;53.654;10.014;2023-04-15T11:05:17;14.30;99.90
46508;DHT22;32223;53.654;10.014;2023-04-15T11:13:16;14.10;99.90
46508;DHT22;32223;53.654;10.014;2023-04-15T11:15:47;14.10;99.90
46508;DHT22;32223;53.654;10.014;2023-04-15T11:18:16;14.20;99.90
46508;DHT22;32223;53.654;10.014;2023-04-15T11:20:53;14.20;99.90
46508;DHT22;32223;53.654;10.014;2023-04-15T11:23:41;14.10;99.90
46508;DHT22;32223;53.654;10.014;2023-04-15T11:26:13;13.90;99.90
46508;DHT22;32223;53.654;10.014;2023-04-15T11:28:41;13.90;99.90
46508;DHT22;32223;53.654;10.014;2023-04-15T11:31:17;13.80;99.90
46508;DHT22;32223;53.654;10.014;2023-04-15T11:34:02;13.60;99.90
46508;DHT22;32223;53.654;10.014;2023-04-15T11:36:29;13.50;99.90
46508;DHT22;32223;53.654;10.014;2023-04-15T11:38:57;13.30;99.90
46508;DHT22;32223;53.654;10.014;2023-04-15T11:41:23;13.20;99.90
46508;DHT22;32223;53.654;10.014;2023-04-15T11:43:50;13.20;99.90
46508;DHT22;32223;53.654;10.014;2023-04-15T11:46:16;13.20;99.90
46508;DHT22;32223;53.654;10.014;2023-04-15T11:48:44;13.30;99.90
46508;DHT22;32223;53.654;10.014;2023-04-15T11:51:10;13.40;99.90
46508;DHT22;32223;53.654;10.014;2023-04-15T11:53:43;13.50;99.90
46508;DHT22;32223;53.654;10.014;2023-04-15T11:56:10;13.50;99.90
46508;DHT22;32223;53.654;10.014;2023-04-15T11:58:37;13.50;99.90
46508;DHT22;32223;53.654;10.014;2023-04-15T12:01:04;13.30;99.90
46508;DHT22;32223;53.654;10.014;2023-04-15T12:03:36;13.30;99.90
46508;DHT22;32223;53.654;10.014;2023-04-15T12:08:56;13.00;99.90
46508;DHT22;32223;53.654;10.014;2023-04-15T12:14:03;12.70;99.90
46508;DHT22;32223;53.654;10.014;2023-04-15T12:16:29;12.70;99.90
46508;DHT22;32223;53.654;10.014;2023-04-15T12:18:59;12.60;99.90
46508;DHT22;32223;53.654;10.014;2023-04-15T12:21:36;12.60;99.90
46508;DHT22;32223;53.654;10.014;2023-04-15T12:24:04;12.60;99.90
46508;DHT22;32223;53.654;10.014;2023-04-15T12:26:43;12.60;99.90
46508;DHT22;32223;53.654;10.014;2023-04-15T12:29:10;12.60;99.90
46508;DHT22;32223;53.654;10.014;2023-04-15T12:31:36;12.60;99.90
46508;DHT22;32223;53.654;10.014;2023-04-15T12:34:06;12.60;99.90
46508;DHT22;32223;53.654;10.014;2023-04-15T12:36:32;12.60;99.90
46508;DHT22;32223;53.654;10.014;2023-04-15T12:39:02;12.70;99.90
46508;DHT22;32223;53.654;10.014;2023-04-15T12:41:28;12.80;99.90
46508;DHT22;32223;53.654;10.014;2023-04-15T12:43:54;13.00;99.90
46508;DHT22;32223;53.654;10.014;2023-04-15T12:46:20;13.30;99.90
46508;DHT22;32223;53.654;10.014;2023-04-15T12:48:46;13.40;99.90
46508;DHT22;32223;53.654;10.014;2023-04-15T12:51:12;13.60;99.90
46508;DHT22;32223;53.654;10.014;2023-04-15T12:53:38;13.80;99.90
46508;DHT22;32223;53.654;10.014;2023-04-15T12:56:04;14.10;99.90
46508;DHT22;32223;53.654;10.014;2023-04-15T12:58:30;14.30;99.90
46508;DHT22;32223;53.654;10.014;2023-04-15T13:00:56;14.40;99.90
46508;DHT22;32223;53.654;10.014;2023-04-15T13:03:22;14.50;99.90
46508;DHT22;32223;53.654;10.014;2023-04-15T13:05:47;14.50;99.90
46508;DHT22;32223;53.654;10.014;2023-04-15T13:08:13;14.40;99.90
46508;DHT22;32223;53.654;10.014;2023-04-15T13:10:39;14.50;99.90
46508;DHT22;32223;53.654;10.014;2023-04-15T13:13:05;14.50;99.90
46508;DHT22;32223;53.654;10.014;2023-04-15T13:15:30;14.50;99.90
46508;DHT22;32223;53.654;10.014;2023-04-15T13:17:56;14.70;99.90
46508;DHT22;32223;53.654;10.014;2023-04-15T13:20:22;14.70;99.90
46508;DHT22;32223;53.654;10.014;2023-04-15T13:22:47;14.80;99.90
46508;DHT22;32223;53.654;10.014;2023-04-15T13:25:13;15.10;99.90
46508;DHT22;32223;53.654;10.014;2023-04-15T13:27:39;15.60;99.90
46508;DHT22;32223;53.654;10.014;2023-04-15T13:30:05;16.00;99.90
46508;DHT22;32223;53.654;10.014;2023-04-15T13:32:31;16.20;99.90
46508;DHT22;32223;53.654;10.014;2023-04-15T13:34:56;16.70;99.90
46508;DHT22;32223;53.654;10.014;2023-04-15T13:37:29;16.70;99.90
46508;DHT22;32223;53.654;10.014;2023-04-15T13:39:55;17.10;99.90
46508;DHT22;32223;53.654;10.014;2023-04-15T13:42:22;17.40;99.90
46508;DHT22;32223;53.654;10.014;2023-04-15T13:44:51;18.20;99.90
46508;DHT22;32223;53.654;10.014;2023-04-15T13:47:20;19.00;99.90
46508;DHT22;32223;53.654;10.014;2023-04-15T13:49:46;19.00;99.90
46508;DHT22;32223;53.654;10.014;2023-04-15T13:52:12;18.10;99.90
46508;DHT22;32223;53.654;10.014;2023-04-15T13:54:38;17.10;99.90
46508;DHT22;32223;53.654;10.014;2023-04-15T13:57:04;16.40;99.90
46508;DHT22;32223;53.654;10.014;2023-04-15T13:59:30;15.90;99.90
46508;DHT22;32223;53.654;10.014;2023-04-15T14:01:57;16.20;99.90
46508;DHT22;32223;53.654;10.014;2023-04-15T14:04:22;16.00;99.90
46508;DHT22;32223;53.654;10.014;2023-04-15T14:06:48;15.70;99.90
46508;DHT22;32223;53.654;10.014;2023-04-15T14:09:14;15.70;99.90
46508;DHT22;32223;53.654;10.014;2023-04-15T14:11:40;15.20;99.90
46508;DHT22;32223;53.654;10.014;2023-04-15T14:14:05;15.00;99.90
46508;DHT22;32223;53.654;10.014;2023-04-15T14:16:32;14.80;99.90
46508;DHT22;32223;53.654;10.014;2023-04-15T14:18:58;15.00;99.90
46508;DHT22;32223;53.654;10.014;2023-04-15T14:21:24;15.00;99.90
46508;DHT22;32223;53.654;10.014;2023-04-15T14:23:50;15.20;99.90
46508;DHT22;32223;53.654;10.014;2023-04-15T14:26:16;15.30;99.90
46508;DHT22;32223;53.654;10.014;2023-04-15T14:28:41;15.30;99.90
46508;DHT22;32223;53.654;10.014;2023-04-15T14:31:09;15.20;99.90
46508;DHT22;32223;53.654;10.014;2023-04-15T14:33:35;15.50;99.90
46508;DHT22;32223;53.654;10.014;2023-04-15T14:36:00;15.80;99.90
46508;DHT22;32223;53.654;10.014;2023-04-15T14:38:26;15.90;99.90
46508;DHT22;32223;53.654;10.014;2023-04-15T14:40:52;15.30;99.90
46508;DHT22;32223;53.654;10.014;2023-04-15T14:43:17;14.90;99.90
46508;DHT22;32223;53.654;10.014;2023-04-15T14:45:43;14.60;99.90
46508;DHT22;32223;53.654;10.014;2023-04-15T14:48:08;14.40;99.90
46508;DHT22;32223;53.654;10.014;2023-04-15T14:50:35;14.20;99.90
46508;DHT22;32223;53.654;10.014;2023-04-15T14:53:00;14.10;99.90
46508;DHT22;32223;53.654;10.014;2023-04-15T14:55:26;14.00;99.90
46508;DHT22;32223;53.654;10.014;2023-04-15T14:57:52;13.90;99.90
46508;DHT22;32223;53.654;10.014;2023-04-15T15:00:17;13.80;99.90
46508;DHT22;32223;53.654;10.014;2023-04-15T15:02:43;13.70;99.90
46508;DHT22;32223;53.654;10.014;2023-04-15T15:05:09;13.70;99.90
46508;DHT22;32223;53.654;10.014;2023-04-15T15:07:37;13.70;99.90
46508;DHT22;32223;53.654;10.014;2023-04-15T15:10:03;13.60;99.90
46508;DHT22;32223;53.654;10.014;2023-04-15T15:12:29;13.60;99.90
46508;DHT22;32223;53.654;10.014;2023-04-15T15:14:55;13.70;99.90
46508;DHT22;32223;53.654;10.014;2023-04-15T15:17:20;13.70;99.90
46508;DHT22;32223;53.654;10.014;2023-04-15T15:19:46;13.70;99.90
46508;DHT22;32223;53.654;10.014;2023-04-15T15:22:12;13.80;99.90
46508;DHT22;32223;53.654;10.014;2023-04-15T15:24:37;13.80;99.90
46508;DHT22;32223;53.654;10.014;2023-04-15T15:27:03;13.70;99.90
46508;DHT22;32223;53.654;10.014;2023-04-15T15:29:28;13.50;99.90
46508;DHT22;32223;53.654;10.014;2023-04-15T15:31:54;13.40;99.90
46508;DHT22;32223;53.654;10.014;2023-04-15T15:34:20;13.30;99.90
46508;DHT22;32223;53.654;10.014;2023-04-15T15:36:45;13.10;99.90
46508;DHT22;32223;53.654;10.014;2023-04-15T15:39:11;13.10;99.90